createdAt,value
2019-04-06T00:00:50.888Z,27.5
2019-04-06T00:01:53.331Z,27.6
2019-04-06T00:02:55.761Z,27.4
2019-04-06T00:03:58.211Z,27.5
2019-04-06T00:05:00.389Z,27.5
2019-04-06T00:06:02.823Z,27.4
2019-04-06T00:07:04.961Z,27.4
2019-04-06T00:08:07.397Z,27.6
2019-04-06T00:09:09.559Z,27.5
2019-04-06T00:10:11.981Z,27.5
2019-04-06T00:11:14.152Z,27.5
2019-04-06T00:12:16.579Z,27.3
2019-04-06T00:13:18.755Z,27.5
2019-04-06T00:14:20.611Z,27.6
2019-04-06T00:15:23.058Z,27.5
2019-04-06T00:16:25.488Z,27.4
2019-04-06T00:17:27.641Z,27.7
2019-04-06T00:18:29.831Z,27.6
2019-04-06T00:19:31.989Z,27.8
2019-04-06T00:20:34.421Z,27.4
2019-04-06T00:21:36.870Z,27.7
2019-04-06T00:22:39.314Z,27.5
2019-04-06T00:23:41.747Z,27.6
2019-04-06T00:24:44.169Z,27.7
2019-04-06T00:25:46.347Z,27.5
2019-04-06T00:26:48.801Z,27.6
2019-04-06T00:27:51.265Z,27.7
2019-04-06T00:28:53.767Z,27.7
2019-04-06T00:29:56.202Z,27.4
2019-04-06T00:30:58.369Z,27.5
2019-04-06T00:32:00.794Z,27.7
2019-04-06T00:33:03.253Z,27.7
2019-04-06T00:34:05.681Z,27.6
2019-04-06T00:35:07.874Z,27.8
2019-04-06T00:36:10.291Z,27.5
2019-04-06T00:37:12.716Z,27.6
2019-04-06T00:38:14.876Z,27.6
2019-04-06T00:39:16.787Z,27.8
2019-04-06T00:40:18.947Z,27.7
2019-04-06T00:41:21.098Z,27.4
2019-04-06T00:42:23.572Z,27.8
2019-04-06T00:43:26.009Z,27.7
2019-04-06T00:44:28.215Z,27.6
2019-04-06T00:45:30.635Z,27.7
2019-04-06T00:46:32.849Z,27.7
2019-04-06T00:47:34.737Z,27.8
2019-04-06T00:48:37.176Z,27.7
2019-04-06T00:49:39.601Z,27.8
2019-04-06T00:50:41.472Z,27.5
2019-04-06T00:51:43.919Z,27.7
2019-04-06T00:52:46.371Z,27.8
2019-04-06T00:53:48.808Z,27.6
2019-04-06T00:54:51.241Z,27.5
2019-04-06T00:55:55.722Z,27.7
2019-04-06T00:56:58.667Z,27.7
2019-04-06T00:58:01.117Z,27.7
2019-04-06T00:59:03.577Z,27.8
2019-04-06T01:00:06.008Z,27.6
2019-04-06T01:01:08.452Z,27.8
2019-04-06T01:02:10.893Z,27.9
2019-04-06T01:03:13.319Z,27.5
2019-04-06T01:04:15.740Z,27.8
2019-04-06T01:05:18.205Z,27.5
2019-04-06T01:06:20.437Z,27.8
2019-04-06T01:07:23.232Z,27.8
2019-04-06T01:08:25.928Z,27.8
2019-04-06T01:09:28.081Z,27.7
2019-04-06T01:10:30.521Z,27.6
2019-04-06T01:11:32.943Z,27.5
2019-04-06T01:12:35.391Z,27.8
2019-04-06T01:13:37.879Z,27.6
2019-04-06T01:14:39.767Z,27.9
2019-04-06T01:15:42.200Z,27.5
2019-04-06T01:16:44.359Z,27.8
2019-04-06T01:17:46.558Z,27.7
2019-04-06T01:18:48.987Z,27.5
2019-04-06T01:19:50.868Z,27.6
2019-04-06T01:20:53.332Z,27.7
2019-04-06T01:21:55.756Z,27.9
2019-04-06T01:22:57.912Z,27.8
2019-04-06T01:24:00.367Z,27.8
2019-04-06T01:25:02.924Z,27.8
2019-04-06T01:26:07.269Z,27.5
2019-04-06T01:27:10.059Z,27.8
2019-04-06T01:28:12.518Z,27.6
2019-04-06T01:29:15.096Z,27.7
2019-04-06T01:30:17.522Z,27.7
2019-04-06T01:31:20.050Z,27.5
2019-04-06T01:32:22.491Z,27.7
2019-04-06T01:33:24.670Z,27.8
2019-04-06T01:34:27.221Z,27.9
2019-04-06T01:35:29.361Z,27.7
2019-04-06T01:36:31.549Z,27.7
2019-04-06T01:37:34.065Z,27.7
2019-04-06T01:38:36.703Z,27.8
2019-04-06T01:39:39.138Z,27.6
2019-04-06T01:40:41.569Z,27.6
2019-04-06T01:41:44.043Z,27.9
2019-04-06T01:42:46.177Z,27.6
2019-04-06T01:43:48.618Z,27.7
2019-04-06T01:44:51.058Z,27.7
2019-04-06T01:45:53.483Z,27.7
2019-04-06T01:46:55.976Z,27.7
2019-04-06T01:47:58.460Z,28
2019-04-06T01:49:00.940Z,27.8
2019-04-06T01:50:02.668Z,28
2019-04-06T01:51:04.835Z,27.9
2019-04-06T01:52:07.311Z,28
2019-04-06T01:53:09.466Z,28
2019-04-06T01:54:11.897Z,27.9
2019-04-06T01:55:14.360Z,27.7
2019-04-06T01:56:18.613Z,27.7
2019-04-06T01:57:21.479Z,27.9
2019-04-06T01:58:24.091Z,27.8
2019-04-06T01:59:26.521Z,27.9
2019-04-06T02:00:28.696Z,27.9
2019-04-06T02:01:31.190Z,27.8
2019-04-06T02:02:33.757Z,27.9
2019-04-06T02:03:36.409Z,27.8
2019-04-06T02:04:38.856Z,27.8
2019-04-06T02:05:41.017Z,27.6
2019-04-06T02:06:43.214Z,27.8
2019-04-06T02:07:45.720Z,27.7
2019-04-06T02:08:48.145Z,27.8
2019-04-06T02:09:50.569Z,27.6
2019-04-06T02:10:52.995Z,27.7
2019-04-06T02:11:55.531Z,27.9
2019-04-06T02:12:57.967Z,27.5
2019-04-06T02:14:00.399Z,27.6
2019-04-06T02:15:02.574Z,27.6
2019-04-06T02:16:05.190Z,27.6
2019-04-06T02:17:07.706Z,27.5
2019-04-06T02:18:10.129Z,27.6
2019-04-06T02:19:12.299Z,27.6
2019-04-06T02:20:14.742Z,27.6
2019-04-06T02:21:16.886Z,27.7
2019-04-06T02:22:19.188Z,27.7
2019-04-06T02:23:21.407Z,27.8
2019-04-06T02:24:23.787Z,27.5
2019-04-06T02:25:26.227Z,27.8
2019-04-06T02:26:30.512Z,27.6
2019-04-06T02:27:33.201Z,27.9
2019-04-06T02:28:35.847Z,27.5
2019-04-06T02:29:38.289Z,27.6
2019-04-06T02:30:40.717Z,27.8
2019-04-06T02:31:43.096Z,27.7
2019-04-06T02:32:45.531Z,27.7
2019-04-06T02:33:48.134Z,27.9
2019-04-06T02:34:50.595Z,27.7
2019-04-06T02:35:52.741Z,27.8
2019-04-06T02:36:54.929Z,27.7
2019-04-06T02:37:57.517Z,27.5
2019-04-06T02:38:59.109Z,27.5
2019-04-06T02:40:01.489Z,27.5
2019-04-06T02:41:03.739Z,27.7
2019-04-06T02:42:06.172Z,27.6
2019-04-06T02:43:08.600Z,27.7
2019-04-06T02:44:11.133Z,27.3
2019-04-06T02:45:13.834Z,27.6
2019-04-06T02:46:16.269Z,27.7
2019-04-06T02:47:18.988Z,27.6
2019-04-06T02:48:21.718Z,27.4
2019-04-06T02:49:24.150Z,27.7
2019-04-06T02:50:26.643Z,27.5
2019-04-06T02:51:29.179Z,27.5
2019-04-06T02:52:31.620Z,27.4
2019-04-06T02:53:33.769Z,27.8
2019-04-06T02:54:36.249Z,27.6
2019-04-06T02:55:38.680Z,27.7
2019-04-06T02:56:46.100Z,27.7
2019-04-06T02:57:46.207Z,27.7
2019-04-06T02:58:48.952Z,27.8
2019-04-06T02:59:51.255Z,27.5
2019-04-06T03:00:53.857Z,28
2019-04-06T03:01:56.298Z,27.8
2019-04-06T03:02:59.041Z,27.7
2019-04-06T03:04:01.489Z,27.7
2019-04-06T03:05:03.621Z,27.5
2019-04-06T03:06:05.503Z,27.6
2019-04-06T03:07:08.106Z,27.5
2019-04-06T03:08:10.575Z,27.8
2019-04-06T03:09:12.457Z,27.7
2019-04-06T03:10:15.219Z,27.5
2019-04-06T03:11:17.812Z,27.8
2019-04-06T03:12:19.976Z,27.8
2019-04-06T03:13:21.574Z,27.5
2019-04-06T03:14:24.074Z,27.6
2019-04-06T03:15:26.700Z,27.6
2019-04-06T03:16:29.260Z,27.5
2019-04-06T03:17:32.111Z,27.6
2019-04-06T03:18:34.555Z,27.6
2019-04-06T03:19:36.727Z,27.5
2019-04-06T03:20:39.153Z,27.7
2019-04-06T03:21:41.572Z,27.6
2019-04-06T03:22:44.135Z,27.6
2019-04-06T03:23:50.967Z,27.7
2019-04-06T03:24:51.440Z,27.7
2019-04-06T03:25:53.628Z,27.8
2019-04-06T03:27:01.342Z,27.8
2019-04-06T03:28:00.879Z,27.5
2019-04-06T03:29:03.594Z,27.6
2019-04-06T03:30:06.176Z,27.7
2019-04-06T03:31:09.661Z,27.6
2019-04-06T03:32:12.614Z,27.3
2019-04-06T03:33:15.541Z,27.6
2019-04-06T03:34:20.818Z,27.5
2019-04-06T03:35:22.990Z,27.5
2019-04-06T03:36:25.589Z,27.4
2019-04-06T03:37:28.009Z,27.5
2019-04-06T03:38:30.527Z,27.7
2019-04-06T03:39:32.695Z,27.5
2019-04-06T03:40:35.139Z,27.5
2019-04-06T03:41:37.357Z,27.5
2019-04-06T03:42:40.026Z,27.5
2019-04-06T03:43:42.470Z,27.4
2019-04-06T03:44:45.061Z,27.5
2019-04-06T03:45:48.057Z,27.7
2019-04-06T03:46:49.911Z,27.5
2019-04-06T03:47:51.935Z,27.4
2019-04-06T03:48:54.157Z,27.6
2019-04-06T03:49:56.330Z,27.5
2019-04-06T03:50:59.039Z,27.4
2019-04-06T03:52:01.791Z,27.5
2019-04-06T03:53:04.272Z,27.6
2019-04-06T03:54:06.451Z,27.4
2019-04-06T03:55:09.170Z,27.3
2019-04-06T03:56:10.517Z,27.5
2019-04-06T03:57:15.344Z,27.4
2019-04-06T03:58:17.798Z,27.4
2019-04-06T03:59:20.007Z,27.5
2019-04-06T04:00:22.606Z,27.4
2019-04-06T04:01:25.305Z,27.4
2019-04-06T04:02:28.099Z,27.6
2019-04-06T04:03:30.521Z,27.5
2019-04-06T04:04:32.961Z,27.6
2019-04-06T04:05:35.379Z,27.4
2019-04-06T04:06:37.787Z,27.5
2019-04-06T04:07:39.452Z,27.6
2019-04-06T04:08:41.917Z,27.3
2019-04-06T04:09:44.825Z,27.3
2019-04-06T04:10:48.020Z,27.5
2019-04-06T04:11:50.623Z,27.3
2019-04-06T04:12:53.195Z,27.4
2019-04-06T04:13:55.402Z,27.4
2019-04-06T04:14:57.839Z,27.4
2019-04-06T04:16:00.437Z,27.3
2019-04-06T04:17:02.841Z,27.3
2019-04-06T04:18:05.469Z,27.3
2019-04-06T04:19:08.129Z,27.4
2019-04-06T04:20:10.631Z,27.4
2019-04-06T04:21:13.058Z,27.3
2019-04-06T04:22:16.026Z,27.3
2019-04-06T04:23:18.757Z,27.3
2019-04-06T04:24:21.016Z,27.5
2019-04-06T04:25:23.865Z,27.3
2019-04-06T04:26:26.555Z,27.1
2019-04-06T04:27:30.649Z,27.3
2019-04-06T04:28:33.590Z,27.2
2019-04-06T04:29:36.030Z,27.3
2019-04-06T04:30:38.867Z,27.2
2019-04-06T04:31:41.505Z,27.4
2019-04-06T04:32:44.449Z,27.3
2019-04-06T04:33:46.606Z,27
2019-04-06T04:34:49.070Z,27.2
2019-04-06T04:35:51.548Z,27.4
2019-04-06T04:36:54.032Z,27.2
2019-04-06T04:37:56.496Z,27.5
2019-04-06T04:38:59.268Z,27.2
2019-04-06T04:40:01.297Z,27.3
2019-04-06T04:41:04.179Z,27.4
2019-04-06T04:42:06.799Z,27.4
2019-04-06T04:43:09.228Z,27.3
2019-04-06T04:44:10.852Z,27.2
2019-04-06T04:45:13.474Z,27.1
2019-04-06T04:46:16.171Z,27.4
2019-04-06T04:47:18.606Z,27.2
2019-04-06T04:48:21.113Z,27.2
2019-04-06T04:49:23.277Z,27.3
2019-04-06T04:50:25.237Z,27.5
2019-04-06T04:51:27.626Z,27.2
2019-04-06T04:52:30.057Z,27.4
2019-04-06T04:53:32.498Z,27.3
2019-04-06T04:54:34.708Z,27.4
2019-04-06T04:55:37.413Z,27.3
2019-04-06T04:56:39.603Z,27.1
2019-04-06T04:57:43.671Z,27.3
2019-04-06T04:58:46.631Z,27.3
2019-04-06T04:59:49.417Z,27.4
2019-04-06T05:00:51.988Z,27.3
2019-04-06T05:01:54.772Z,27.1
2019-04-06T05:02:57.203Z,27.2
2019-04-06T05:03:59.102Z,27.3
2019-04-06T05:05:01.305Z,27.2
2019-04-06T05:06:03.734Z,27.2
2019-04-06T05:07:06.507Z,27.1
2019-04-06T05:08:08.922Z,27.3
2019-04-06T05:09:11.389Z,27.2
2019-04-06T05:10:13.908Z,27.2
2019-04-06T05:11:16.094Z,27.1
2019-04-06T05:12:18.254Z,27.2
2019-04-06T05:13:20.675Z,27.3
2019-04-06T05:14:22.607Z,27.1
2019-04-06T05:15:24.215Z,27.3
2019-04-06T05:16:26.374Z,27.2
2019-04-06T05:17:28.920Z,27.2
2019-04-06T05:18:31.430Z,27.1
2019-04-06T05:19:33.577Z,27.2
2019-04-06T05:20:35.804Z,27.1
2019-04-06T05:21:37.948Z,27.2
2019-04-06T05:22:40.387Z,27.3
2019-04-06T05:23:42.948Z,27.2
2019-04-06T05:24:46.240Z,27.3
2019-04-06T05:25:48.596Z,27.1
2019-04-06T05:26:51.224Z,27.3
2019-04-06T05:27:53.747Z,27.1
2019-04-06T05:28:56.167Z,27.2
2019-04-06T05:29:58.718Z,27.2
2019-04-06T05:32:17.709Z,27.1
2019-04-06T05:33:20.437Z,27.1
2019-04-06T05:34:23.233Z,27.1
2019-04-06T05:35:25.505Z,27
2019-04-06T05:36:30.350Z,27.1
2019-04-06T05:37:34.195Z,27.2
2019-04-06T05:38:38.697Z,27.2
2019-04-06T05:39:43.670Z,27.1
2019-04-06T05:40:45.871Z,27.3
2019-04-06T05:41:50.409Z,27.1
2019-04-06T05:42:53.296Z,26.9
2019-04-06T05:43:55.449Z,27
2019-04-06T05:44:57.610Z,27.2
2019-04-06T05:45:59.495Z,27
2019-04-06T05:47:02.017Z,27.1
2019-04-06T05:48:04.586Z,27.1
2019-04-06T05:49:07.007Z,27.2
2019-04-06T05:50:09.168Z,27
2019-04-06T05:51:11.495Z,27.1
2019-04-06T05:52:13.949Z,27.1
2019-04-06T05:53:16.385Z,27.2
2019-04-06T05:54:18.940Z,27.2
2019-04-06T05:55:20.860Z,27.1
2019-04-06T05:56:27.344Z,27.1
2019-04-06T05:57:31.506Z,27.1
2019-04-06T05:58:34.604Z,27.1
2019-04-06T05:59:41.618Z,27
2019-04-06T06:00:43.787Z,27.3
2019-04-06T06:01:48.165Z,27.2
2019-04-06T06:02:50.958Z,27.1
2019-04-06T06:03:53.527Z,27.2
2019-04-06T06:04:55.950Z,27.1
2019-04-06T06:06:03.056Z,27.2
2019-04-06T06:07:05.912Z,27.4
2019-04-06T06:08:09.035Z,27.1
2019-04-06T06:09:11.869Z,27.1
2019-04-06T06:10:14.316Z,27.2
2019-04-06T06:11:16.666Z,27.2
2019-04-06T06:12:19.229Z,27.2
2019-04-06T06:13:21.680Z,27.3
2019-04-06T06:14:23.995Z,27.1
2019-04-06T06:15:26.326Z,27.1
2019-04-06T06:16:28.767Z,27.3
2019-04-06T06:17:31.389Z,27.1
2019-04-06T06:18:34.130Z,27.3
2019-04-06T06:19:36.772Z,27.1
2019-04-06T06:20:39.877Z,27.2
2019-04-06T06:21:42.317Z,27.1
2019-04-06T06:22:44.750Z,27.2
2019-04-06T06:23:47.637Z,27.1
2019-04-06T06:24:50.422Z,27
2019-04-06T06:25:52.858Z,27.2
2019-04-06T06:26:55.003Z,27.2
2019-04-06T06:27:57.193Z,27.1
2019-04-06T06:28:59.713Z,27.1
2019-04-06T06:30:01.608Z,27.3
2019-04-06T06:31:04.321Z,27.2
2019-04-06T06:32:06.922Z,27
2019-04-06T06:33:09.353Z,26.9
2019-04-06T06:34:11.731Z,27.1
2019-04-06T06:35:14.328Z,27.1
2019-04-06T06:36:17.102Z,27.2
2019-04-06T06:37:19.334Z,27.3
2019-04-06T06:38:21.587Z,27.2
2019-04-06T06:39:23.518Z,27.2
2019-04-06T06:40:25.665Z,27
2019-04-06T06:41:27.904Z,27
2019-04-06T06:42:30.584Z,27.1
2019-04-06T06:43:32.700Z,27.1
2019-04-06T06:44:35.166Z,27.1
2019-04-06T06:45:37.317Z,27.1
2019-04-06T06:46:39.858Z,27
2019-04-06T06:47:42.297Z,27
2019-04-06T06:48:44.463Z,27.2
2019-04-06T06:49:47.161Z,27.2
2019-04-06T06:50:49.080Z,27
2019-04-06T06:51:51.690Z,27
2019-04-06T06:52:53.838Z,27.1
2019-04-06T06:53:56.718Z,27
2019-04-06T06:54:58.888Z,27.2
2019-04-06T06:56:01.038Z,26.9
2019-04-06T06:57:03.878Z,27.3
2019-04-06T06:58:06.209Z,27
2019-04-06T06:59:08.376Z,26.9
2019-04-06T07:00:10.733Z,27.3
2019-04-06T07:01:13.446Z,27.2
2019-04-06T07:02:15.969Z,27
2019-04-06T07:03:18.392Z,27.3
2019-04-06T07:04:20.554Z,27.2
2019-04-06T07:05:22.990Z,27.1
2019-04-06T07:06:25.591Z,27
2019-04-06T07:07:27.934Z,27.1
2019-04-06T07:08:30.443Z,27.2
2019-04-06T07:09:33.277Z,27
2019-04-06T07:10:35.978Z,27.1
2019-04-06T07:11:38.760Z,27
2019-04-06T07:12:41.648Z,27.1
2019-04-06T07:13:44.424Z,27.1
2019-04-06T07:14:47.842Z,27
2019-04-06T07:15:58.005Z,27
2019-04-06T07:17:08.454Z,27
2019-04-06T07:18:18.136Z,26.8
2019-04-06T07:19:29.948Z,27.1
2019-04-06T07:20:38.416Z,27.2
2019-04-06T07:21:49.473Z,27
2019-04-06T07:22:59.100Z,27
2019-04-06T07:24:11.815Z,27
2019-04-06T07:25:16.049Z,26.9
2019-04-06T07:26:18.920Z,27.2
2019-04-06T07:27:21.625Z,27.2
2019-04-06T07:28:27.881Z,27.1
2019-04-06T07:29:29.271Z,27.1
2019-04-06T07:30:31.578Z,27.1
2019-04-06T07:31:34.204Z,26.9
2019-04-06T07:32:36.558Z,27.1
2019-04-06T07:33:38.708Z,27
2019-04-06T07:34:40.648Z,27.1
2019-04-06T07:35:42.529Z,27
2019-04-06T07:36:45.214Z,27.1
2019-04-06T07:37:47.369Z,27.1
2019-04-06T07:38:49.524Z,27
2019-04-06T07:39:52.171Z,27.1
2019-04-06T07:40:55.034Z,27
2019-04-06T07:41:56.894Z,27.1
2019-04-06T07:42:59.330Z,27
2019-04-06T07:44:01.773Z,27.1
2019-04-06T07:45:07.980Z,27.1
2019-04-06T07:46:10.298Z,27.1
2019-04-06T07:47:12.927Z,27.1
2019-04-06T07:48:15.075Z,26.9
2019-04-06T07:49:17.536Z,27
2019-04-06T07:50:19.682Z,27
2019-04-06T07:51:22.109Z,27.2
2019-04-06T07:52:24.613Z,27.1
2019-04-06T07:53:27.078Z,27
2019-04-06T07:54:29.246Z,27
2019-04-06T07:55:31.644Z,27.3
2019-04-06T07:56:34.236Z,27
2019-04-06T07:57:36.399Z,27
2019-04-06T07:58:47.741Z,27
2019-04-06T07:59:43.827Z,27.3
2019-04-06T08:00:46.258Z,27.1
2019-04-06T08:01:49.073Z,27.1
2019-04-06T08:02:51.417Z,27.2
2019-04-06T08:03:53.847Z,27.1
2019-04-06T08:04:55.997Z,27.1
2019-04-06T08:05:58.697Z,27.1
2019-04-06T08:07:00.839Z,27.1
2019-04-06T08:08:03.460Z,27.1
2019-04-06T08:09:05.888Z,27.2
2019-04-06T08:10:08.699Z,27.2
2019-04-06T08:11:10.860Z,27.3
2019-04-06T08:12:13.653Z,27.3
2019-04-06T08:13:16.262Z,27
2019-04-06T08:14:18.647Z,27.2
2019-04-06T08:15:21.296Z,27.1
2019-04-06T08:16:23.937Z,27.2
2019-04-06T08:17:26.368Z,27.3
2019-04-06T08:18:29.650Z,27.1
2019-04-06T08:19:32.388Z,27.2
2019-04-06T08:20:35.133Z,27
2019-04-06T08:21:37.388Z,27.1
2019-04-06T08:22:39.880Z,27.2
2019-04-06T08:23:42.348Z,27.3
2019-04-06T08:24:44.933Z,27.1
2019-04-06T08:25:47.587Z,27.1
2019-04-06T08:26:49.764Z,27.2
2019-04-06T08:27:52.332Z,27.2
2019-04-06T08:29:00.076Z,27.2
2019-04-06T08:29:59.562Z,27.1
2019-04-06T08:31:02.124Z,27.1
2019-04-06T08:32:04.303Z,27.2
2019-04-06T08:33:07.003Z,27.2
2019-04-06T08:34:09.861Z,27.1
2019-04-06T08:35:25.039Z,27.2
2019-04-06T08:36:21.142Z,27.1
2019-04-06T08:37:23.759Z,27
2019-04-06T08:38:26.275Z,27.2
2019-04-06T08:39:28.787Z,27.1
2019-04-06T08:40:31.680Z,27
2019-04-06T08:41:34.248Z,27
2019-04-06T08:42:37.046Z,27.1
2019-04-06T08:43:39.328Z,27.2
2019-04-06T08:44:42.042Z,26.9
2019-04-06T08:45:44.448Z,27.1
2019-04-06T08:46:47.050Z,27.1
2019-04-06T08:47:49.626Z,27
2019-04-06T08:48:52.012Z,27.1
2019-04-06T08:49:54.180Z,26.9
2019-04-06T08:50:56.790Z,27.1
2019-04-06T08:51:59.712Z,27.1
2019-04-06T08:53:02.478Z,27.1
2019-04-06T08:54:04.909Z,26.9
2019-04-06T08:55:07.357Z,27.1
2019-04-06T08:56:09.850Z,27.1
2019-04-06T08:57:12.069Z,26.9
2019-04-06T08:58:14.541Z,27.2
2019-04-06T08:59:17.086Z,27.2
2019-04-06T09:00:19.729Z,27.1
2019-04-06T09:01:21.901Z,27.1
2019-04-06T09:02:24.665Z,27.2
2019-04-06T09:03:30.792Z,27.2
2019-04-06T09:04:33.185Z,27.2
2019-04-06T09:05:35.728Z,27.1
2019-04-06T09:06:38.092Z,27.3
2019-04-06T09:07:40.859Z,27.1
2019-04-06T09:08:43.370Z,27.1
2019-04-06T09:09:45.933Z,27.2
2019-04-06T09:10:48.607Z,27.2
2019-04-06T09:11:51.226Z,27.2
2019-04-06T09:12:52.838Z,27
2019-04-06T09:13:55.442Z,27
2019-04-06T09:14:57.648Z,27
2019-04-06T09:16:00.091Z,27
2019-04-06T09:17:06.113Z,27.1
2019-04-06T09:18:08.391Z,27.1
2019-04-06T09:19:10.787Z,27
2019-04-06T09:20:13.378Z,27.2
2019-04-06T09:21:16.234Z,27.2
2019-04-06T09:22:18.675Z,27
2019-04-06T09:23:20.839Z,27.2
2019-04-06T09:24:23.122Z,27.1
2019-04-06T09:25:25.549Z,27.4
2019-04-06T09:26:27.982Z,27.1
2019-04-06T09:27:30.933Z,27.1
2019-04-06T09:28:33.630Z,26.9
2019-04-06T09:29:36.218Z,27.1
2019-04-06T09:30:38.578Z,27.2
2019-04-06T09:31:41.021Z,27.2
2019-04-06T09:32:43.178Z,27.1
2019-04-06T09:33:45.533Z,27
2019-04-06T09:34:47.585Z,26.9
2019-04-06T09:35:49.741Z,27
2019-04-06T09:36:52.389Z,27.1
2019-04-06T09:37:54.827Z,27.2
2019-04-06T09:38:57.438Z,27.1
2019-04-06T09:39:59.591Z,27.1
2019-04-06T09:41:01.907Z,27.1
2019-04-06T09:42:04.802Z,27.3
2019-04-06T09:43:07.032Z,27.2
2019-04-06T09:44:09.417Z,27.2
2019-04-06T09:45:11.948Z,27.2
2019-04-06T09:46:13.846Z,27
2019-04-06T09:47:16.876Z,27.1
2019-04-06T09:48:19.846Z,27.2
2019-04-06T09:49:22.542Z,27.1
2019-04-06T09:50:25.077Z,27.1
2019-04-06T09:51:27.218Z,27.1
2019-04-06T09:52:29.157Z,27.1
2019-04-06T09:53:33.224Z,27.2
2019-04-06T09:54:36.268Z,27.1
2019-04-06T09:55:38.864Z,27.2
2019-04-06T09:56:41.027Z,27.2
2019-04-06T09:57:43.581Z,27
2019-04-06T09:58:46.368Z,27
2019-04-06T09:59:49.116Z,27.1
2019-04-06T10:00:51.510Z,27.3
2019-04-06T10:01:54.000Z,27
2019-04-06T10:02:56.198Z,27.2
2019-04-06T10:03:59.154Z,27.1
2019-04-06T10:05:01.580Z,27
2019-04-06T10:06:04.091Z,27.1
2019-04-06T10:07:06.699Z,27.2
2019-04-06T10:08:09.794Z,27.2
2019-04-06T10:09:11.988Z,26.9
2019-04-06T10:10:13.967Z,27.2
2019-04-06T10:11:16.135Z,27.1
2019-04-06T10:12:19.057Z,27.2
2019-04-06T10:13:21.656Z,27.1
2019-04-06T10:14:23.853Z,27.3
2019-04-06T10:15:25.504Z,27.2
2019-04-06T10:16:28.114Z,27.2
2019-04-06T10:17:30.758Z,27.3
2019-04-06T10:18:33.280Z,27.4
2019-04-06T10:19:35.708Z,27
2019-04-06T10:20:38.341Z,27.3
2019-04-06T10:21:40.949Z,27.3
2019-04-06T10:22:43.466Z,27.2
2019-04-06T10:23:46.124Z,27.1
2019-04-06T10:24:49.012Z,27.3
2019-04-06T10:25:51.263Z,27.1
2019-04-06T10:26:53.953Z,27.1
2019-04-06T10:27:56.393Z,27.2
2019-04-06T10:28:58.629Z,27.2
2019-04-06T10:30:01.391Z,27.1
2019-04-06T10:31:03.511Z,26.9
2019-04-06T10:32:06.354Z,27.3
2019-04-06T10:33:08.926Z,27.1
2019-04-06T10:34:11.568Z,27.1
2019-04-06T10:35:14.176Z,27.1
2019-04-06T10:36:16.850Z,27.2
2019-04-06T10:37:19.678Z,27.2
2019-04-06T10:38:22.628Z,27.1
2019-04-06T10:39:25.239Z,27
2019-04-06T10:40:27.879Z,27.2
2019-04-06T10:41:30.499Z,27.4
2019-04-06T10:42:33.185Z,27.3
2019-04-06T10:43:35.663Z,27.2
2019-04-06T10:44:38.551Z,27.1
2019-04-06T10:45:40.779Z,27
2019-04-06T10:46:43.377Z,27.2
2019-04-06T10:47:46.177Z,27.4
2019-04-06T10:48:48.704Z,27.2
2019-04-06T10:49:50.673Z,27
2019-04-06T10:50:53.687Z,27
2019-04-06T10:51:55.851Z,27
2019-04-06T10:52:58.326Z,27.2
2019-04-06T10:54:00.648Z,27.1
2019-04-06T10:55:03.813Z,27.1
2019-04-06T10:56:06.328Z,27.2
2019-04-06T10:57:08.817Z,27
2019-04-06T10:58:10.971Z,27.1
2019-04-06T10:59:13.097Z,27
2019-04-06T11:00:16.020Z,27.1
2019-04-06T11:01:18.220Z,27.2
2019-04-06T11:02:21.059Z,27.1
2019-04-06T11:03:22.927Z,27.4
2019-04-06T11:04:25.101Z,27.1
2019-04-06T11:05:27.944Z,27.3
2019-04-06T11:06:30.726Z,27
2019-04-06T11:07:33.342Z,27
2019-04-06T11:08:36.081Z,27.3
2019-04-06T11:09:38.138Z,27.1
2019-04-06T11:10:40.554Z,27.2
2019-04-06T11:11:43.427Z,27.1
2019-04-06T11:12:46.168Z,27.1
2019-04-06T11:13:48.667Z,27
2019-04-06T11:14:50.952Z,27.2
2019-04-06T11:15:53.554Z,27.2
2019-04-06T11:16:55.879Z,27
2019-04-06T11:17:58.722Z,27.1
2019-04-06T11:19:01.489Z,27.2
2019-04-06T11:20:04.273Z,27.1
2019-04-06T11:21:06.487Z,27.4
2019-04-06T11:22:08.903Z,27.3
2019-04-06T11:23:11.085Z,27.1
2019-04-06T11:24:13.230Z,27.3
2019-04-06T11:25:15.669Z,27.2
2019-04-06T11:26:17.889Z,27.2
2019-04-06T11:27:20.894Z,27.3
2019-04-06T11:28:23.509Z,27
2019-04-06T11:29:26.352Z,27.3
2019-04-06T11:30:29.054Z,27.1
2019-04-06T11:31:31.491Z,27.2
2019-04-06T11:32:34.343Z,27.2
2019-04-06T11:33:36.158Z,27.1
2019-04-06T11:34:38.318Z,27.1
2019-04-06T11:35:41.368Z,27.3
2019-04-06T11:36:44.326Z,27.1
2019-04-06T11:37:46.635Z,27.1
2019-04-06T11:38:49.316Z,27.1
2019-04-06T11:39:51.708Z,27.3
2019-04-06T11:40:54.441Z,27.1
2019-04-06T11:41:56.869Z,27.1
2019-04-06T11:42:59.052Z,27
2019-04-06T11:44:01.950Z,27.1
2019-04-06T11:45:04.031Z,27.3
2019-04-06T11:46:06.442Z,27.1
2019-04-06T11:47:09.342Z,27
2019-04-06T11:48:12.086Z,27.1
2019-04-06T11:49:14.565Z,27.2
2019-04-06T11:50:16.914Z,27.4
2019-04-06T11:51:19.253Z,27.3
2019-04-06T11:52:21.837Z,27.2
2019-04-06T11:53:24.458Z,27.2
2019-04-06T11:54:27.235Z,27.2
2019-04-06T11:55:29.504Z,27.2
2019-04-06T11:56:31.939Z,27.1
2019-04-06T11:57:34.421Z,27.4
2019-04-06T11:58:36.832Z,27.1
2019-04-06T11:59:39.146Z,27
2019-04-06T12:00:41.991Z,27.3
2019-04-06T12:01:43.806Z,27
2019-04-06T12:02:46.250Z,27.1
2019-04-06T12:03:49.178Z,27.3
2019-04-06T12:04:51.445Z,27.2
2019-04-06T12:05:53.339Z,27
2019-04-06T12:06:55.516Z,27.2
2019-04-06T12:07:57.995Z,27.4
2019-04-06T12:09:00.176Z,27.1
2019-04-06T12:10:02.605Z,27.3
2019-04-06T12:11:05.481Z,27.1
2019-04-06T12:12:08.380Z,27.3
2019-04-06T12:13:11.298Z,27.1
2019-04-06T12:14:13.139Z,27.4
2019-04-06T12:15:15.468Z,27.3
2019-04-06T12:16:17.929Z,27.4
2019-04-06T12:17:20.366Z,27.1
2019-04-06T12:18:22.858Z,27.3
2019-04-06T12:19:25.025Z,27.3
2019-04-06T12:20:28.201Z,27.3
2019-04-06T12:21:30.947Z,27.1
2019-04-06T12:22:33.728Z,27.2
2019-04-06T12:23:36.107Z,27.2
2019-04-06T12:24:38.993Z,27.1
2019-04-06T12:25:41.763Z,27.1
2019-04-06T12:26:44.180Z,27.1
2019-04-06T12:27:46.233Z,27.2
2019-04-06T12:28:48.670Z,27.3
2019-04-06T12:31:08.388Z,27.3
2019-04-06T12:32:10.549Z,27.3
2019-04-06T12:33:13.149Z,27.2
2019-04-06T12:34:15.479Z,27.1
2019-04-06T12:35:17.994Z,27.2
2019-04-06T12:36:19.894Z,27.3
2019-04-06T12:37:22.648Z,27.2
2019-04-06T12:38:25.492Z,27.3
2019-04-06T12:39:28.355Z,27.3
2019-04-06T12:40:31.137Z,27.3
2019-04-06T12:41:33.847Z,27.3
2019-04-06T12:42:36.679Z,27.3
2019-04-06T12:43:39.897Z,27.3
2019-04-06T12:44:42.345Z,27.3
2019-04-06T12:45:45.199Z,27.2
2019-04-06T12:46:48.589Z,27.2
2019-04-06T12:47:51.573Z,27.4
2019-04-06T12:48:54.149Z,27
2019-04-06T12:49:56.400Z,27.4
2019-04-06T12:50:59.331Z,27.2
2019-04-06T12:52:02.071Z,27.4
2019-04-06T12:53:05.123Z,27.3
2019-04-06T12:54:08.103Z,27.4
2019-04-06T12:55:10.777Z,27.3
2019-04-06T12:56:13.201Z,27.3
2019-04-06T12:57:15.624Z,27.3
2019-04-06T12:58:18.282Z,27.3
2019-04-06T12:59:20.139Z,27.4
2019-04-06T13:00:23.037Z,27.3
2019-04-06T13:01:25.927Z,27.2
2019-04-06T13:02:28.610Z,27.3
2019-04-06T13:03:31.045Z,27.2
2019-04-06T13:04:33.862Z,27.2
2019-04-06T13:05:36.470Z,27.2
2019-04-06T13:06:39.283Z,27.2
2019-04-06T13:07:42.092Z,27.1
2019-04-06T13:08:45.340Z,27.4
2019-04-06T13:09:48.246Z,27.2
2019-04-06T13:10:50.960Z,27.3
2019-04-06T13:11:53.433Z,27.3
2019-04-06T13:12:56.178Z,27.5
2019-04-06T13:13:58.991Z,27.4
2019-04-06T13:15:01.445Z,27.2
2019-04-06T13:16:03.857Z,27.3
2019-04-06T13:17:05.920Z,27.3
2019-04-06T13:18:07.825Z,27.4
2019-04-06T13:19:10.503Z,27.1
2019-04-06T13:20:12.940Z,27.4
2019-04-06T13:21:15.370Z,27.4
2019-04-06T13:22:18.095Z,27.2
2019-04-06T13:23:21.490Z,27.2
2019-04-06T13:24:23.989Z,27.2
2019-04-06T13:25:26.768Z,27.2
2019-04-06T13:26:29.603Z,27.2
2019-04-06T13:27:32.206Z,27.2
2019-04-06T13:28:34.771Z,27.1
2019-04-06T13:29:37.406Z,27.3
2019-04-06T13:30:39.855Z,26.9
2019-04-06T13:31:42.670Z,27
2019-04-06T13:32:45.112Z,27.2
2019-04-06T13:33:47.331Z,27.1
2019-04-06T13:34:49.496Z,27.3
2019-04-06T13:35:51.668Z,27.1
2019-04-06T13:36:54.250Z,27.4
2019-04-06T13:37:57.222Z,27.1
2019-04-06T13:38:59.497Z,27.4
2019-04-06T13:40:02.245Z,27.3
2019-04-06T13:41:04.855Z,27.3
2019-04-06T13:42:07.435Z,27.2
2019-04-06T13:43:09.871Z,27.3
2019-04-06T13:44:12.548Z,27
2019-04-06T13:45:15.167Z,27
2019-04-06T13:46:18.016Z,27.2
2019-04-06T13:47:20.228Z,27
2019-04-06T13:48:22.908Z,27.1
2019-04-06T13:49:26.074Z,27.1
2019-04-06T13:50:28.309Z,27.3
2019-04-06T13:51:30.841Z,27.2
2019-04-06T13:52:33.316Z,27.4
2019-04-06T13:53:36.280Z,27.1
2019-04-06T13:54:38.851Z,27.2
2019-04-06T13:55:41.898Z,27.2
2019-04-06T13:56:44.104Z,27.2
2019-04-06T13:57:46.724Z,27.1
2019-04-06T13:58:49.508Z,27.1
2019-04-06T13:59:52.421Z,27.2
2019-04-06T14:00:55.361Z,27.1
2019-04-06T14:01:58.404Z,27.1
2019-04-06T14:03:01.250Z,27.1